sensor_id;sensor_type;location;lat;lon;timestamp;P1;durP1;ratioP1;P2;durP2;ratioP2
9675;SDS011;4876;42.656;23.292;2023-01-15T00:01:43;20.80;;;12.70;;
9675;SDS011;4876;42.656;23.292;2023-01-15T00:04:10;23.47;;;13.50;;
9675;SDS011;4876;42.656;23.292;2023-01-15T00:06:38;21.63;;;13.20;;
9675;SDS011;4876;42.656;23.292;2023-01-15T00:09:06;22.23;;;13.67;;
9675;SDS011;4876;42.656;23.292;2023-01-15T00:11:38;19.17;;;12.83;;
9675;SDS011;4876;42.656;23.292;2023-01-15T00:14:05;21.00;;;13.27;;
9675;SDS011;4876;42.656;23.292;2023-01-15T00:16:31;23.17;;;14.80;;
9675;SDS011;4876;42.656;23.292;2023-01-15T00:19:00;26.20;;;15.40;;
9675;SDS011;4876;42.656;23.292;2023-01-15T00:21:28;23.70;;;14.73;;
9675;SDS011;4876;42.656;23.292;2023-01-15T00:23:55;24.57;;;14.87;;
9675;SDS011;4876;42.656;23.292;2023-01-15T00:26:39;25.43;;;15.93;;
9675;SDS011;4876;42.656;23.292;2023-01-15T00:29:24;26.50;;;15.93;;
9675;SDS011;4876;42.656;23.292;2023-01-15T00:31:52;23.17;;;15.47;;
9675;SDS011;4876;42.656;23.292;2023-01-15T00:34:23;27.97;;;14.80;;
9675;SDS011;4876;42.656;23.292;2023-01-15T00:36:50;23.33;;;14.77;;
9675;SDS011;4876;42.656;23.292;2023-01-15T00:39:17;26.23;;;15.60;;
9675;SDS011;4876;42.656;23.292;2023-01-15T00:41:43;26.87;;;16.30;;
9675;SDS011;4876;42.656;23.292;2023-01-15T00:44:10;26.77;;;16.27;;
9675;SDS011;4876;42.656;23.292;2023-01-15T00:46:37;24.87;;;15.43;;
9675;SDS011;4876;42.656;23.292;2023-01-15T00:49:04;26.03;;;16.37;;
9675;SDS011;4876;42.656;23.292;2023-01-15T00:51:32;23.83;;;16.03;;
9675;SDS011;4876;42.656;23.292;2023-01-15T00:53:59;22.63;;;14.73;;
9675;SDS011;4876;42.656;23.292;2023-01-15T00:56:26;26.93;;;16.13;;
9675;SDS011;4876;42.656;23.292;2023-01-15T00:58:53;29.33;;;15.77;;
9675;SDS011;4876;42.656;23.292;2023-01-15T01:01:20;26.57;;;15.33;;
9675;SDS011;4876;42.656;23.292;2023-01-15T01:03:47;21.33;;;14.17;;
9675;SDS011;4876;42.656;23.292;2023-01-15T01:06:17;25.80;;;16.03;;
9675;SDS011;4876;42.656;23.292;2023-01-15T01:08:46;27.57;;;16.37;;
9675;SDS011;4876;42.656;23.292;2023-01-15T01:11:14;26.23;;;14.07;;
9675;SDS011;4876;42.656;23.292;2023-01-15T01:13:42;21.53;;;14.83;;
9675;SDS011;4876;42.656;23.292;2023-01-15T01:16:23;27.43;;;15.53;;
9675;SDS011;4876;42.656;23.292;2023-01-15T01:18:54;23.53;;;14.97;;
9675;SDS011;4876;42.656;23.292;2023-01-15T01:21:22;21.87;;;14.87;;
9675;SDS011;4876;42.656;23.292;2023-01-15T01:23:50;23.23;;;15.20;;
9675;SDS011;4876;42.656;23.292;2023-01-15T01:26:17;22.67;;;15.33;;
9675;SDS011;4876;42.656;23.292;2023-01-15T01:28:48;25.70;;;15.07;;
9675;SDS011;4876;42.656;23.292;2023-01-15T01:31:16;29.23;;;16.23;;
9675;SDS011;4876;42.656;23.292;2023-01-15T01:33:44;22.87;;;14.93;;
9675;SDS011;4876;42.656;23.292;2023-01-15T01:36:13;23.37;;;15.23;;
9675;SDS011;4876;42.656;23.292;2023-01-15T01:38:40;23.00;;;15.07;;
9675;SDS011;4876;42.656;23.292;2023-01-15T01:41:08;25.13;;;16.10;;
9675;SDS011;4876;42.656;23.292;2023-01-15T01:43:50;24.33;;;15.73;;
9675;SDS011;4876;42.656;23.292;2023-01-15T01:46:18;23.77;;;16.23;;
9675;SDS011;4876;42.656;23.292;2023-01-15T01:48:45;25.50;;;15.70;;
9675;SDS011;4876;42.656;23.292;2023-01-15T01:51:14;26.40;;;16.10;;
9675;SDS011;4876;42.656;23.292;2023-01-15T01:53:41;25.40;;;16.73;;
9675;SDS011;4876;42.656;23.292;2023-01-15T01:56:10;27.33;;;16.47;;
9675;SDS011;4876;42.656;23.292;2023-01-15T01:58:41;23.80;;;15.57;;
9675;SDS011;4876;42.656;23.292;2023-01-15T02:01:10;28.37;;;17.03;;
9675;SDS011;4876;42.656;23.292;2023-01-15T02:03:37;26.97;;;15.87;;
9675;SDS011;4876;42.656;23.292;2023-01-15T02:06:05;24.87;;;15.57;;
9675;SDS011;4876;42.656;23.292;2023-01-15T02:08:34;22.97;;;15.57;;
9675;SDS011;4876;42.656;23.292;2023-01-15T02:11:04;26.33;;;15.67;;
9675;SDS011;4876;42.656;23.292;2023-01-15T02:13:34;26.50;;;16.43;;
9675;SDS011;4876;42.656;23.292;2023-01-15T02:16:05;26.43;;;14.80;;
9675;SDS011;4876;42.656;23.292;2023-01-15T02:18:39;25.50;;;16.30;;
9675;SDS011;4876;42.656;23.292;2023-01-15T02:21:11;24.63;;;15.47;;
9675;SDS011;4876;42.656;23.292;2023-01-15T02:23:52;25.23;;;16.53;;
9675;SDS011;4876;42.656;23.292;2023-01-15T02:29:26;29.67;;;16.77;;
9675;SDS011;4876;42.656;23.292;2023-01-15T02:31:58;28.20;;;16.67;;
9675;SDS011;4876;42.656;23.292;2023-01-15T02:34:28;24.53;;;16.27;;
9675;SDS011;4876;42.656;23.292;2023-01-15T02:37:00;26.07;;;17.23;;
9675;SDS011;4876;42.656;23.292;2023-01-15T02:39:31;26.37;;;17.13;;
9675;SDS011;4876;42.656;23.292;2023-01-15T02:42:03;31.07;;;17.83;;
9675;SDS011;4876;42.656;23.292;2023-01-15T02:44:34;25.90;;;15.63;;
9675;SDS011;4876;42.656;23.292;2023-01-15T02:47:05;26.37;;;16.50;;
9675;SDS011;4876;42.656;23.292;2023-01-15T02:49:34;27.27;;;16.27;;
9675;SDS011;4876;42.656;23.292;2023-01-15T02:52:03;29.77;;;15.70;;
9675;SDS011;4876;42.656;23.292;2023-01-15T02:54:35;30.50;;;16.77;;
9675;SDS011;4876;42.656;23.292;2023-01-15T02:57:08;27.60;;;16.73;;
9675;SDS011;4876;42.656;23.292;2023-01-15T02:59:37;31.77;;;18.70;;
9675;SDS011;4876;42.656;23.292;2023-01-15T03:02:08;34.90;;;19.80;;
9675;SDS011;4876;42.656;23.292;2023-01-15T03:04:39;35.97;;;19.63;;
9675;SDS011;4876;42.656;23.292;2023-01-15T03:07:10;32.10;;;19.27;;
9675;SDS011;4876;42.656;23.292;2023-01-15T03:09:42;31.73;;;17.80;;
9675;SDS011;4876;42.656;23.292;2023-01-15T03:12:13;32.23;;;18.73;;
9675;SDS011;4876;42.656;23.292;2023-01-15T03:14:43;31.93;;;18.27;;
9675;SDS011;4876;42.656;23.292;2023-01-15T03:17:22;34.10;;;20.33;;
9675;SDS011;4876;42.656;23.292;2023-01-15T03:19:55;33.63;;;20.03;;
9675;SDS011;4876;42.656;23.292;2023-01-15T03:22:25;33.10;;;18.53;;
9675;SDS011;4876;42.656;23.292;2023-01-15T03:24:54;22.40;;;13.03;;
9675;SDS011;4876;42.656;23.292;2023-01-15T03:27:27;33.43;;;18.07;;
9675;SDS011;4876;42.656;23.292;2023-01-15T03:29:58;32.93;;;19.57;;
9675;SDS011;4876;42.656;23.292;2023-01-15T03:32:45;33.13;;;18.40;;
9675;SDS011;4876;42.656;23.292;2023-01-15T03:38:07;29.30;;;17.90;;
9675;SDS011;4876;42.656;23.292;2023-01-15T03:40:34;31.33;;;16.53;;
9675;SDS011;4876;42.656;23.292;2023-01-15T03:43:06;27.10;;;17.10;;
9675;SDS011;4876;42.656;23.292;2023-01-15T03:45:58;26.83;;;15.77;;
9675;SDS011;4876;42.656;23.292;2023-01-15T03:48:33;28.30;;;16.47;;
9675;SDS011;4876;42.656;23.292;2023-01-15T03:51:04;29.43;;;17.57;;
9675;SDS011;4876;42.656;23.292;2023-01-15T03:53:35;30.70;;;17.93;;
9675;SDS011;4876;42.656;23.292;2023-01-15T03:56:07;28.47;;;17.33;;
9675;SDS011;4876;42.656;23.292;2023-01-15T03:58:42;29.87;;;17.77;;
9675;SDS011;4876;42.656;23.292;2023-01-15T04:01:11;30.60;;;17.17;;
9675;SDS011;4876;42.656;23.292;2023-01-15T04:03:43;27.03;;;17.93;;
9675;SDS011;4876;42.656;23.292;2023-01-15T04:06:12;29.63;;;18.87;;
9675;SDS011;4876;42.656;23.292;2023-01-15T04:08:40;29.60;;;18.80;;
9675;SDS011;4876;42.656;23.292;2023-01-15T04:11:09;26.60;;;16.50;;
9675;SDS011;4876;42.656;23.292;2023-01-15T04:13:36;31.83;;;17.67;;
9675;SDS011;4876;42.656;23.292;2023-01-15T04:16:04;30.47;;;17.93;;
9675;SDS011;4876;42.656;23.292;2023-01-15T04:18:31;30.57;;;17.63;;
9675;SDS011;4876;42.656;23.292;2023-01-15T04:20:58;29.63;;;18.07;;
9675;SDS011;4876;42.656;23.292;2023-01-15T04:23:26;28.03;;;17.20;;
9675;SDS011;4876;42.656;23.292;2023-01-15T04:25:53;30.33;;;19.00;;
9675;SDS011;4876;42.656;23.292;2023-01-15T04:28:20;28.80;;;18.30;;
9675;SDS011;4876;42.656;23.292;2023-01-15T04:30:46;32.13;;;20.97;;
9675;SDS011;4876;42.656;23.292;2023-01-15T04:33:14;35.33;;;19.73;;
9675;SDS011;4876;42.656;23.292;2023-01-15T04:35:41;27.10;;;18.47;;
9675;SDS011;4876;42.656;23.292;2023-01-15T04:38:11;28.80;;;18.63;;
9675;SDS011;4876;42.656;23.292;2023-01-15T04:40:37;32.60;;;18.03;;
9675;SDS011;4876;42.656;23.292;2023-01-15T04:43:21;31.00;;;17.87;;
9675;SDS011;4876;42.656;23.292;2023-01-15T04:46:06;29.07;;;17.67;;
9675;SDS011;4876;42.656;23.292;2023-01-15T04:48:34;29.57;;;17.90;;
9675;SDS011;4876;42.656;23.292;2023-01-15T04:51:01;30.87;;;17.40;;
9675;SDS011;4876;42.656;23.292;2023-01-15T04:53:29;29.57;;;18.23;;
9675;SDS011;4876;42.656;23.292;2023-01-15T04:55:59;31.17;;;18.90;;
9675;SDS011;4876;42.656;23.292;2023-01-15T04:58:26;32.60;;;20.20;;
9675;SDS011;4876;42.656;23.292;2023-01-15T05:00:54;36.27;;;20.50;;
9675;SDS011;4876;42.656;23.292;2023-01-15T05:03:20;39.37;;;22.30;;
9675;SDS011;4876;42.656;23.292;2023-01-15T05:05:49;34.03;;;20.77;;
9675;SDS011;4876;42.656;23.292;2023-01-15T05:08:15;39.77;;;22.00;;
9675;SDS011;4876;42.656;23.292;2023-01-15T05:10:42;34.43;;;21.17;;
9675;SDS011;4876;42.656;23.292;2023-01-15T05:13:09;33.67;;;18.87;;
9675;SDS011;4876;42.656;23.292;2023-01-15T05:15:36;30.67;;;17.93;;
9675;SDS011;4876;42.656;23.292;2023-01-15T05:18:04;29.47;;;17.77;;
9675;SDS011;4876;42.656;23.292;2023-01-15T05:20:34;33.50;;;19.37;;
9675;SDS011;4876;42.656;23.292;2023-01-15T05:23:03;30.27;;;17.90;;
9675;SDS011;4876;42.656;23.292;2023-01-15T05:25:30;29.50;;;17.10;;
9675;SDS011;4876;42.656;23.292;2023-01-15T05:27:56;30.07;;;16.87;;
9675;SDS011;4876;42.656;23.292;2023-01-15T05:30:23;26.37;;;16.83;;
9675;SDS011;4876;42.656;23.292;2023-01-15T05:32:50;26.20;;;15.83;;
9675;SDS011;4876;42.656;23.292;2023-01-15T05:35:17;27.77;;;16.83;;
9675;SDS011;4876;42.656;23.292;2023-01-15T05:37:44;26.53;;;15.87;;
9675;SDS011;4876;42.656;23.292;2023-01-15T05:40:12;27.63;;;16.43;;
9675;SDS011;4876;42.656;23.292;2023-01-15T05:42:39;24.10;;;15.20;;
9675;SDS011;4876;42.656;23.292;2023-01-15T05:45:06;24.93;;;16.93;;
9675;SDS011;4876;42.656;23.292;2023-01-15T05:47:34;31.53;;;15.73;;
9675;SDS011;4876;42.656;23.292;2023-01-15T05:50:00;25.23;;;15.87;;
9675;SDS011;4876;42.656;23.292;2023-01-15T05:52:27;24.77;;;15.07;;
9675;SDS011;4876;42.656;23.292;2023-01-15T05:54:54;24.73;;;13.67;;
9675;SDS011;4876;42.656;23.292;2023-01-15T05:57:22;36.37;;;14.63;;
9675;SDS011;4876;42.656;23.292;2023-01-15T05:59:49;32.53;;;14.93;;
9675;SDS011;4876;42.656;23.292;2023-01-15T06:02:17;19.77;;;12.57;;
9675;SDS011;4876;42.656;23.292;2023-01-15T06:04:44;32.70;;;12.33;;
9675;SDS011;4876;42.656;23.292;2023-01-15T06:07:11;23.70;;;12.73;;
9675;SDS011;4876;42.656;23.292;2023-01-15T06:09:37;27.13;;;12.90;;
9675;SDS011;4876;42.656;23.292;2023-01-15T06:12:04;23.93;;;12.83;;
9675;SDS011;4876;42.656;23.292;2023-01-15T06:14:33;16.63;;;10.80;;
9675;SDS011;4876;42.656;23.292;2023-01-15T06:16:59;23.23;;;13.97;;
9675;SDS011;4876;42.656;23.292;2023-01-15T06:19:26;17.73;;;10.93;;
9675;SDS011;4876;42.656;23.292;2023-01-15T06:21:53;21.13;;;10.80;;
9675;SDS011;4876;42.656;23.292;2023-01-15T06:24:20;19.73;;;11.40;;
9675;SDS011;4876;42.656;23.292;2023-01-15T06:26:47;17.90;;;10.47;;
9675;SDS011;4876;42.656;23.292;2023-01-15T06:29:14;18.47;;;11.20;;
9675;SDS011;4876;42.656;23.292;2023-01-15T06:31:44;18.67;;;11.97;;
9675;SDS011;4876;42.656;23.292;2023-01-15T06:34:11;24.13;;;11.90;;
9675;SDS011;4876;42.656;23.292;2023-01-15T06:36:38;18.60;;;12.17;;
9675;SDS011;4876;42.656;23.292;2023-01-15T06:39:04;20.87;;;12.30;;
9675;SDS011;4876;42.656;23.292;2023-01-15T06:41:31;24.47;;;12.60;;
9675;SDS011;4876;42.656;23.292;2023-01-15T06:44:16;18.93;;;12.37;;
9675;SDS011;4876;42.656;23.292;2023-01-15T06:47:04;16.07;;;11.03;;
9675;SDS011;4876;42.656;23.292;2023-01-15T06:49:47;17.33;;;11.47;;
9675;SDS011;4876;42.656;23.292;2023-01-15T06:52:14;20.97;;;11.33;;
9675;SDS011;4876;42.656;23.292;2023-01-15T06:54:41;17.70;;;10.17;;
9675;SDS011;4876;42.656;23.292;2023-01-15T06:57:07;28.30;;;10.87;;
9675;SDS011;4876;42.656;23.292;2023-01-15T06:59:34;28.20;;;11.33;;
9675;SDS011;4876;42.656;23.292;2023-01-15T07:02:02;25.13;;;11.43;;
9675;SDS011;4876;42.656;23.292;2023-01-15T07:04:29;19.60;;;11.30;;
9675;SDS011;4876;42.656;23.292;2023-01-15T07:06:57;28.50;;;11.47;;
9675;SDS011;4876;42.656;23.292;2023-01-15T07:09:23;20.37;;;11.57;;
9675;SDS011;4876;42.656;23.292;2023-01-15T07:11:50;29.20;;;11.70;;
9675;SDS011;4876;42.656;23.292;2023-01-15T07:14:17;18.97;;;11.50;;
9675;SDS011;4876;42.656;23.292;2023-01-15T07:16:46;30.47;;;13.37;;
9675;SDS011;4876;42.656;23.292;2023-01-15T07:19:14;27.93;;;12.33;;
9675;SDS011;4876;42.656;23.292;2023-01-15T07:21:41;22.67;;;11.63;;
9675;SDS011;4876;42.656;23.292;2023-01-15T07:24:09;25.30;;;12.27;;
9675;SDS011;4876;42.656;23.292;2023-01-15T07:26:36;23.43;;;12.30;;
9675;SDS011;4876;42.656;23.292;2023-01-15T07:29:03;25.97;;;13.07;;
9675;SDS011;4876;42.656;23.292;2023-01-15T07:31:30;22.27;;;11.43;;
9675;SDS011;4876;42.656;23.292;2023-01-15T07:33:57;19.77;;;12.13;;
9675;SDS011;4876;42.656;23.292;2023-01-15T07:36:25;22.77;;;13.10;;
9675;SDS011;4876;42.656;23.292;2023-01-15T07:38:52;20.97;;;12.77;;
9675;SDS011;4876;42.656;23.292;2023-01-15T07:41:19;18.33;;;12.40;;
9675;SDS011;4876;42.656;23.292;2023-01-15T07:44:03;24.23;;;13.57;;
9675;SDS011;4876;42.656;23.292;2023-01-15T07:46:48;21.93;;;13.73;;
9675;SDS011;4876;42.656;23.292;2023-01-15T07:49:32;27.03;;;13.70;;
9675;SDS011;4876;42.656;23.292;2023-01-15T07:52:14;24.10;;;14.20;;
9675;SDS011;4876;42.656;23.292;2023-01-15T07:54:42;24.90;;;14.13;;
9675;SDS011;4876;42.656;23.292;2023-01-15T07:57:09;27.60;;;16.17;;
9675;SDS011;4876;42.656;23.292;2023-01-15T07:59:37;27.93;;;16.37;;
9675;SDS011;4876;42.656;23.292;2023-01-15T08:02:04;32.70;;;14.70;;
9675;SDS011;4876;42.656;23.292;2023-01-15T08:04:31;32.27;;;14.40;;
9675;SDS011;4876;42.656;23.292;2023-01-15T08:06:58;20.67;;;13.37;;
9675;SDS011;4876;42.656;23.292;2023-01-15T08:09:27;19.43;;;13.60;;
9675;SDS011;4876;42.656;23.292;2023-01-15T08:11:54;28.17;;;13.33;;
9675;SDS011;4876;42.656;23.292;2023-01-15T08:14:41;17.37;;;9.93;;
9675;SDS011;4876;42.656;23.292;2023-01-15T08:17:25;18.87;;;10.03;;
9675;SDS011;4876;42.656;23.292;2023-01-15T08:19:52;16.03;;;9.97;;
9675;SDS011;4876;42.656;23.292;2023-01-15T08:22:19;16.17;;;10.40;;
9675;SDS011;4876;42.656;23.292;2023-01-15T08:24:47;20.73;;;10.23;;
9675;SDS011;4876;42.656;23.292;2023-01-15T08:27:14;15.67;;;10.90;;
9675;SDS011;4876;42.656;23.292;2023-01-15T08:29:40;16.90;;;10.50;;
9675;SDS011;4876;42.656;23.292;2023-01-15T08:32:07;18.07;;;11.60;;
9675;SDS011;4876;42.656;23.292;2023-01-15T08:34:34;16.53;;;9.23;;
9675;SDS011;4876;42.656;23.292;2023-01-15T08:37:01;15.80;;;10.77;;
9675;SDS011;4876;42.656;23.292;2023-01-15T08:39:28;19.93;;;12.23;;
9675;SDS011;4876;42.656;23.292;2023-01-15T08:41:56;16.73;;;11.57;;
9675;SDS011;4876;42.656;23.292;2023-01-15T08:44:23;20.20;;;12.93;;
9675;SDS011;4876;42.656;23.292;2023-01-15T08:46:50;20.60;;;12.13;;
9675;SDS011;4876;42.656;23.292;2023-01-15T08:49:17;18.90;;;11.23;;
9675;SDS011;4876;42.656;23.292;2023-01-15T08:51:45;17.13;;;11.33;;
9675;SDS011;4876;42.656;23.292;2023-01-15T08:54:16;16.97;;;11.10;;
9675;SDS011;4876;42.656;23.292;2023-01-15T08:56:44;17.67;;;11.20;;
9675;SDS011;4876;42.656;23.292;2023-01-15T08:59:12;15.77;;;10.43;;
9675;SDS011;4876;42.656;23.292;2023-01-15T09:01:39;16.10;;;9.33;;
9675;SDS011;4876;42.656;23.292;2023-01-15T09:04:06;17.73;;;11.20;;
9675;SDS011;4876;42.656;23.292;2023-01-15T09:06:33;16.17;;;10.47;;
9675;SDS011;4876;42.656;23.292;2023-01-15T09:09:00;17.80;;;10.33;;
9675;SDS011;4876;42.656;23.292;2023-01-15T09:11:26;14.83;;;10.00;;
9675;SDS011;4876;42.656;23.292;2023-01-15T09:13:53;17.67;;;11.80;;
9675;SDS011;4876;42.656;23.292;2023-01-15T09:16:22;18.47;;;11.13;;
9675;SDS011;4876;42.656;23.292;2023-01-15T09:18:50;16.23;;;10.23;;
9675;SDS011;4876;42.656;23.292;2023-01-15T09:21:17;10.77;;;7.57;;
9675;SDS011;4876;42.656;23.292;2023-01-15T09:23:44;14.77;;;9.17;;
9675;SDS011;4876;42.656;23.292;2023-01-15T09:26:19;12.90;;;9.07;;
9675;SDS011;4876;42.656;23.292;2023-01-15T09:28:53;17.17;;;10.70;;
9675;SDS011;4876;42.656;23.292;2023-01-15T09:31:22;15.37;;;10.13;;
9675;SDS011;4876;42.656;23.292;2023-01-15T09:33:49;16.20;;;9.90;;
9675;SDS011;4876;42.656;23.292;2023-01-15T09:36:16;16.33;;;9.90;;
9675;SDS011;4876;42.656;23.292;2023-01-15T09:38:45;20.03;;;11.53;;
9675;SDS011;4876;42.656;23.292;2023-01-15T09:41:12;16.80;;;8.67;;
9675;SDS011;4876;42.656;23.292;2023-01-15T09:43:55;16.93;;;10.50;;
9675;SDS011;4876;42.656;23.292;2023-01-15T09:46:35;17.00;;;10.40;;
9675;SDS011;4876;42.656;23.292;2023-01-15T09:49:09;17.00;;;10.93;;
9675;SDS011;4876;42.656;23.292;2023-01-15T09:51:50;19.03;;;10.70;;
9675;SDS011;4876;42.656;23.292;2023-01-15T09:54:31;19.70;;;11.50;;
9675;SDS011;4876;42.656;23.292;2023-01-15T09:57:10;18.00;;;11.90;;
9675;SDS011;4876;42.656;23.292;2023-01-15T09:59:39;19.57;;;11.87;;
9675;SDS011;4876;42.656;23.292;2023-01-15T10:02:16;21.30;;;12.37;;
9675;SDS011;4876;42.656;23.292;2023-01-15T10:04:50;17.37;;;11.27;;
9675;SDS011;4876;42.656;23.292;2023-01-15T10:07:22;19.70;;;13.10;;
9675;SDS011;4876;42.656;23.292;2023-01-15T10:09:56;22.73;;;12.33;;
9675;SDS011;4876;42.656;23.292;2023-01-15T10:12:27;18.23;;;12.40;;
9675;SDS011;4876;42.656;23.292;2023-01-15T10:17:51;20.40;;;12.43;;
9675;SDS011;4876;42.656;23.292;2023-01-15T10:23:26;23.60;;;15.03;;
9675;SDS011;4876;42.656;23.292;2023-01-15T10:26:13;15.53;;;9.13;;
9675;SDS011;4876;42.656;23.292;2023-01-15T10:28:56;31.27;;;15.37;;
9675;SDS011;4876;42.656;23.292;2023-01-15T10:31:34;27.20;;;16.03;;
9675;SDS011;4876;42.656;23.292;2023-01-15T10:34:23;24.27;;;14.87;;
9675;SDS011;4876;42.656;23.292;2023-01-15T10:37:09;23.33;;;12.10;;
9675;SDS011;4876;42.656;23.292;2023-01-15T10:39:42;20.27;;;12.33;;
9675;SDS011;4876;42.656;23.292;2023-01-15T10:42:16;21.77;;;13.87;;
9675;SDS011;4876;42.656;23.292;2023-01-15T10:44:56;18.33;;;12.57;;
9675;SDS011;4876;42.656;23.292;2023-01-15T10:47:30;27.13;;;14.17;;
9675;SDS011;4876;42.656;23.292;2023-01-15T10:50:04;17.33;;;10.43;;
9675;SDS011;4876;42.656;23.292;2023-01-15T10:52:42;25.17;;;12.43;;
9675;SDS011;4876;42.656;23.292;2023-01-15T10:55:15;27.40;;;16.37;;
9675;SDS011;4876;42.656;23.292;2023-01-15T10:57:47;21.57;;;13.83;;
9675;SDS011;4876;42.656;23.292;2023-01-15T11:00:17;24.43;;;14.97;;
9675;SDS011;4876;42.656;23.292;2023-01-15T11:02:46;20.67;;;12.37;;
9675;SDS011;4876;42.656;23.292;2023-01-15T11:05:19;18.37;;;9.67;;
9675;SDS011;4876;42.656;23.292;2023-01-15T11:07:47;24.17;;;13.67;;
9675;SDS011;4876;42.656;23.292;2023-01-15T11:10:16;18.07;;;10.23;;
9675;SDS011;4876;42.656;23.292;2023-01-15T11:12:48;19.33;;;12.10;;
9675;SDS011;4876;42.656;23.292;2023-01-15T11:15:35;21.53;;;11.93;;
9675;SDS011;4876;42.656;23.292;2023-01-15T11:18:22;29.57;;;13.17;;
9675;SDS011;4876;42.656;23.292;2023-01-15T11:21:13;17.90;;;11.33;;
9675;SDS011;4876;42.656;23.292;2023-01-15T11:23:42;21.53;;;11.33;;
9675;SDS011;4876;42.656;23.292;2023-01-15T11:26:15;22.47;;;13.63;;
9675;SDS011;4876;42.656;23.292;2023-01-15T11:28:45;19.33;;;12.47;;
9675;SDS011;4876;42.656;23.292;2023-01-15T11:31:12;21.37;;;12.40;;
9675;SDS011;4876;42.656;23.292;2023-01-15T11:33:42;20.13;;;11.73;;
9675;SDS011;4876;42.656;23.292;2023-01-15T11:36:20;21.10;;;13.27;;
9675;SDS011;4876;42.656;23.292;2023-01-15T11:38:49;13.30;;;8.20;;
9675;SDS011;4876;42.656;23.292;2023-01-15T11:41:19;23.37;;;11.70;;
9675;SDS011;4876;42.656;23.292;2023-01-15T11:43:54;17.63;;;11.13;;
9675;SDS011;4876;42.656;23.292;2023-01-15T11:46:39;11.97;;;7.90;;
9675;SDS011;4876;42.656;23.292;2023-01-15T11:49:23;19.53;;;11.70;;
9675;SDS011;4876;42.656;23.292;2023-01-15T11:52:10;12.37;;;7.90;;
9675;SDS011;4876;42.656;23.292;2023-01-15T11:54:42;17.93;;;11.10;;
9675;SDS011;4876;42.656;23.292;2023-01-15T11:57:11;15.33;;;9.63;;
9675;SDS011;4876;42.656;23.292;2023-01-15T11:59:50;24.23;;;13.43;;
9675;SDS011;4876;42.656;23.292;2023-01-15T12:02:20;18.20;;;10.73;;
9675;SDS011;4876;42.656;23.292;2023-01-15T12:04:57;17.20;;;9.57;;
9675;SDS011;4876;42.656;23.292;2023-01-15T12:07:38;18.00;;;10.37;;
9675;SDS011;4876;42.656;23.292;2023-01-15T12:10:11;19.00;;;11.13;;
9675;SDS011;4876;42.656;23.292;2023-01-15T12:12:49;18.27;;;10.23;;
9675;SDS011;4876;42.656;23.292;2023-01-15T12:15:28;15.37;;;8.00;;
9675;SDS011;4876;42.656;23.292;2023-01-15T12:18:08;15.83;;;10.37;;
9675;SDS011;4876;42.656;23.292;2023-01-15T12:21:00;15.83;;;9.43;;
9675;SDS011;4876;42.656;23.292;2023-01-15T12:23:35;18.90;;;10.87;;
9675;SDS011;4876;42.656;23.292;2023-01-15T12:26:12;16.63;;;9.97;;
9675;SDS011;4876;42.656;23.292;2023-01-15T12:28:51;19.10;;;11.10;;
9675;SDS011;4876;42.656;23.292;2023-01-15T12:31:24;12.27;;;7.37;;
9675;SDS011;4876;42.656;23.292;2023-01-15T12:33:57;13.33;;;8.43;;
9675;SDS011;4876;42.656;23.292;2023-01-15T12:36:30;12.97;;;8.07;;
9675;SDS011;4876;42.656;23.292;2023-01-15T12:39:08;13.60;;;9.00;;
9675;SDS011;4876;42.656;23.292;2023-01-15T12:41:44;10.70;;;8.07;;
9675;SDS011;4876;42.656;23.292;2023-01-15T12:44:33;13.50;;;9.20;;
9675;SDS011;4876;42.656;23.292;2023-01-15T12:47:24;15.10;;;8.23;;
9675;SDS011;4876;42.656;23.292;2023-01-15T12:49:55;14.23;;;8.73;;
9675;SDS011;4876;42.656;23.292;2023-01-15T12:52:26;12.60;;;8.30;;
9675;SDS011;4876;42.656;23.292;2023-01-15T12:55:00;8.40;;;6.00;;
9675;SDS011;4876;42.656;23.292;2023-01-15T12:57:35;12.27;;;8.90;;
9675;SDS011;4876;42.656;23.292;2023-01-15T13:00:10;14.40;;;9.27;;
9675;SDS011;4876;42.656;23.292;2023-01-15T13:02:46;13.10;;;8.10;;
9675;SDS011;4876;42.656;23.292;2023-01-15T13:05:26;15.30;;;9.23;;
9675;SDS011;4876;42.656;23.292;2023-01-15T13:07:58;13.57;;;9.63;;
9675;SDS011;4876;42.656;23.292;2023-01-15T13:10:32;16.77;;;8.30;;
9675;SDS011;4876;42.656;23.292;2023-01-15T13:13:13;9.20;;;7.03;;
9675;SDS011;4876;42.656;23.292;2023-01-15T13:15:45;12.47;;;8.60;;
9675;SDS011;4876;42.656;23.292;2023-01-15T13:18:26;13.90;;;9.47;;
9675;SDS011;4876;42.656;23.292;2023-01-15T13:20:58;14.10;;;9.70;;
9675;SDS011;4876;42.656;23.292;2023-01-15T13:23:35;17.60;;;10.57;;
9675;SDS011;4876;42.656;23.292;2023-01-15T13:26:19;12.87;;;8.63;;
9675;SDS011;4876;42.656;23.292;2023-01-15T13:29:01;12.90;;;7.27;;
9675;SDS011;4876;42.656;23.292;2023-01-15T13:31:42;10.87;;;7.57;;
9675;SDS011;4876;42.656;23.292;2023-01-15T13:34:20;8.67;;;6.13;;
9675;SDS011;4876;42.656;23.292;2023-01-15T13:36:51;6.03;;;4.80;;
9675;SDS011;4876;42.656;23.292;2023-01-15T13:39:23;12.47;;;7.70;;
9675;SDS011;4876;42.656;23.292;2023-01-15T13:42:03;9.73;;;6.03;;
9675;SDS011;4876;42.656;23.292;2023-01-15T13:44:50;8.47;;;5.77;;
9675;SDS011;4876;42.656;23.292;2023-01-15T13:47:19;11.73;;;5.93;;
9675;SDS011;4876;42.656;23.292;2023-01-15T13:49:50;6.53;;;4.13;;
9675;SDS011;4876;42.656;23.292;2023-01-15T13:52:21;9.13;;;6.00;;
9675;SDS011;4876;42.656;23.292;2023-01-15T13:54:53;10.50;;;6.87;;
9675;SDS011;4876;42.656;23.292;2023-01-15T13:57:25;13.87;;;8.20;;
9675;SDS011;4876;42.656;23.292;2023-01-15T13:59:59;10.77;;;8.03;;
9675;SDS011;4876;42.656;23.292;2023-01-15T14:02:29;13.63;;;9.07;;
9675;SDS011;4876;42.656;23.292;2023-01-15T14:04:58;15.63;;;9.50;;
9675;SDS011;4876;42.656;23.292;2023-01-15T14:07:31;18.17;;;9.90;;
9675;SDS011;4876;42.656;23.292;2023-01-15T14:13:11;24.63;;;12.40;;
9675;SDS011;4876;42.656;23.292;2023-01-15T14:15:50;16.73;;;11.03;;
9675;SDS011;4876;42.656;23.292;2023-01-15T14:18:26;18.23;;;11.63;;
9675;SDS011;4876;42.656;23.292;2023-01-15T14:21:10;19.43;;;11.57;;
9675;SDS011;4876;42.656;23.292;2023-01-15T14:24:04;20.83;;;10.87;;
9675;SDS011;4876;42.656;23.292;2023-01-15T14:26:45;30.70;;;12.23;;
9675;SDS011;4876;42.656;23.292;2023-01-15T14:29:29;26.07;;;13.20;;
9675;SDS011;4876;42.656;23.292;2023-01-15T14:32:16;28.93;;;15.60;;
9675;SDS011;4876;42.656;23.292;2023-01-15T14:34:55;30.70;;;15.67;;
9675;SDS011;4876;42.656;23.292;2023-01-15T14:37:25;32.80;;;16.90;;
9675;SDS011;4876;42.656;23.292;2023-01-15T14:39:56;32.27;;;16.77;;
9675;SDS011;4876;42.656;23.292;2023-01-15T14:42:25;27.53;;;15.97;;
9675;SDS011;4876;42.656;23.292;2023-01-15T14:45:29;29.90;;;17.60;;
9675;SDS011;4876;42.656;23.292;2023-01-15T14:48:00;28.20;;;19.27;;
9675;SDS011;4876;42.656;23.292;2023-01-15T14:50:30;23.70;;;16.53;;
9675;SDS011;4876;42.656;23.292;2023-01-15T14:53:04;22.23;;;15.33;;
9675;SDS011;4876;42.656;23.292;2023-01-15T14:55:48;26.33;;;14.17;;
9675;SDS011;4876;42.656;23.292;2023-01-15T14:58:24;28.03;;;15.07;;
9675;SDS011;4876;42.656;23.292;2023-01-15T15:01:01;30.57;;;16.10;;
9675;SDS011;4876;42.656;23.292;2023-01-15T15:03:52;24.43;;;15.87;;
9675;SDS011;4876;42.656;23.292;2023-01-15T15:06:23;26.70;;;14.87;;
9675;SDS011;4876;42.656;23.292;2023-01-15T15:08:53;24.93;;;15.83;;
9675;SDS011;4876;42.656;23.292;2023-01-15T15:11:33;23.60;;;15.40;;
9675;SDS011;4876;42.656;23.292;2023-01-15T15:14:21;30.70;;;16.57;;
9675;SDS011;4876;42.656;23.292;2023-01-15T15:16:52;25.63;;;15.07;;
9675;SDS011;4876;42.656;23.292;2023-01-15T15:19:25;34.63;;;18.23;;